Time;durP1;ratioP1;P1;durP2;ratioP2;P2;SDS_P1;SDS_P2;PMS_P1;PMS_P2;Temp;Humidity;BMP_temperature;BMP_pressure;BME280_temperature;BME280_humidity;BME280_pressure;Samples;Min_cycle;Max_cycle;Signal;HPM_P1;HPM_P2
2023/04/03 00:01:48;;;;;;;6.60;2.70;;;2.70;99.90;;;;;;4994774;28;20030;-48
2023/04/03 00:04:34;;;;;;;11.52;4.15;;;2.70;99.90;;;;;;4994235;28;20499;-48
2023/04/03 00:07:20;;;;;;;5.13;2.90;;;2.80;99.90;;;;;;4994200;28;20026;-47
2023/04/03 00:10:07;;;;;;;7.15;3.03;;;2.80;99.90;;;;;;4995723;28;20451;-49
2023/04/03 00:12:53;;;;;;;6.78;2.85;;;2.90;99.90;;;;;;4994103;28;20029;-49
2023/04/03 00:15:39;;;;;;;8.98;3.17;;;2.90;99.90;;;;;;4995490;28;20031;-50
2023/04/03 00:18:25;;;;;;;7.38;3.03;;;2.90;99.90;;;;;;4994639;28;20022;-50
2023/04/03 00:21:13;;;;;;;7.57;3.40;;;2.90;99.90;;;;;;4995118;28;20027;-50
2023/04/03 00:23:59;;;;;;;9.18;3.08;;;2.90;99.90;;;;;;4995385;28;20123;-48
2023/04/03 00:26:45;;;;;;;8.18;3.60;;;2.80;99.90;;;;;;4993484;28;20061;-48
2023/04/03 00:29:31;;;;;;;8.68;3.58;;;2.80;99.90;;;;;;4993860;28;20030;-48
2023/04/03 00:32:16;;;;;;;6.13;2.95;;;2.70;99.90;;;;;;4994234;28;20038;-49
2023/04/03 00:35:03;;;;;;;12.38;5.03;;;2.70;99.90;;;;;;4994861;28;20515;-48
2023/04/03 00:37:51;;;;;;;6.25;3.05;;;2.70;99.90;;;;;;4994754;28;20590;-48
2023/04/03 00:40:42;;;;;;;7.60;3.63;;;2.70;99.90;;;;;;4994024;28;20041;-54
2023/04/03 00:43:29;;;;;;;8.63;3.50;;;2.70;99.90;;;;;;4993977;28;20092;-47
2023/04/03 00:46:15;;;;;;;11.43;3.50;;;2.60;99.90;;;;;;4995397;28;20030;-48
2023/04/03 00:49:01;;;;;;;8.48;3.13;;;2.50;99.90;;;;;;4993673;28;20030;-48
2023/04/03 00:51:47;;;;;;;9.35;3.45;;;2.60;99.90;;;;;;4977504;28;20115;-51
2023/04/03 00:54:35;;;;;;;6.07;3.05;;;2.60;99.90;;;;;;4975855;28;20412;-50
2023/04/03 00:57:22;;;;;;;8.40;2.72;;;2.50;99.90;;;;;;4974760;28;20038;-51
2023/04/03 01:00:12;;;;;;;8.52;3.63;;;2.50;99.90;;;;;;4974967;28;20023;-52
2023/04/03 01:02:58;;;;;;;8.52;2.67;;;2.40;99.90;;;;;;4973978;28;20023;-48
2023/04/03 01:05:45;;;;;;;7.18;3.83;;;2.50;99.90;;;;;;4974253;28;20730;-47
2023/04/03 01:08:31;;;;;;;8.23;2.95;;;2.40;99.90;;;;;;4959595;28;20062;-47
2023/04/03 01:11:17;;;;;;;6.10;3.00;;;2.40;99.90;;;;;;4974226;28;20456;-52
2023/04/03 01:14:05;;;;;;;10.07;2.95;;;2.30;99.90;;;;;;4974701;28;20031;-50
2023/04/03 01:16:54;;;;;;;11.02;3.20;;;2.30;99.90;;;;;;4973652;28;20035;-51
2023/04/03 01:19:47;;;;;;;9.05;2.83;;;2.30;99.90;;;;;;4973858;28;20403;-54
2023/04/03 01:22:46;;;;;;;6.47;2.78;;;2.30;99.90;;;;;;4966081;28;20039;-53
2023/04/03 01:25:33;;;;;;;10.40;3.95;;;2.30;99.90;;;;;;4974291;28;20468;-52
2023/04/03 01:28:25;;;;;;;7.32;2.70;;;2.30;99.90;;;;;;4973390;28;20079;-49
2023/04/03 01:31:23;;;;;;;7.78;3.47;;;2.30;99.90;;;;;;4959043;28;20025;-52
2023/04/03 01:34:09;;;;;;;7.80;3.75;;;2.20;99.90;;;;;;4973715;28;20384;-52
2023/04/03 01:36:55;;;;;;;9.32;3.20;;;2.30;99.90;;;;;;4973837;28;20440;-56
2023/04/03 01:39:41;;;;;;;8.10;2.88;;;2.30;99.90;;;;;;4972893;28;20023;-51
2023/04/03 01:42:27;;;;;;;4.22;2.67;;;2.20;99.90;;;;;;4973899;28;20058;-52
2023/04/03 01:45:13;;;;;;;6.90;3.20;;;2.20;99.90;;;;;;4973543;28;20559;-51
2023/04/03 01:47:59;;;;;;;12.27;3.78;;;2.10;99.90;;;;;;4973593;28;20367;-46
2023/04/03 01:50:45;;;;;;;9.48;3.67;;;2.10;99.90;;;;;;4973283;28;20066;-48
2023/04/03 01:53:31;;;;;;;8.52;3.45;;;2.10;99.90;;;;;;4973855;28;20067;-46
2023/04/03 01:56:17;;;;;;;8.25;3.00;;;2.10;99.90;;;;;;4997382;28;20104;-48
2023/04/03 01:59:03;;;;;;;8.95;2.88;;;2.00;99.90;;;;;;4973684;28;20086;-49
2023/04/03 02:01:49;;;;;;;6.32;2.97;;;1.90;99.90;;;;;;4972974;28;20030;-52
2023/04/03 02:04:35;;;;;;;6.03;3.08;;;2.00;99.90;;;;;;4973389;28;20035;-50
2023/04/03 02:07:21;;;;;;;9.00;3.28;;;2.00;99.90;;;;;;4973395;28;20023;-47
2023/04/03 02:10:08;;;;;;;6.50;2.70;;;1.90;99.90;;;;;;4973399;28;20031;-48
2023/04/03 02:12:54;;;;;;;9.20;3.05;;;2.00;99.90;;;;;;4973425;28;20109;-51
2023/04/03 02:15:40;;;;;;;6.68;2.97;;;1.90;99.90;;;;;;4958839;28;20037;-49
2023/04/03 02:18:25;;;;;;;6.65;3.17;;;1.90;99.90;;;;;;4973143;28;20118;-52
2023/04/03 02:21:11;;;;;;;8.20;2.92;;;1.90;99.90;;;;;;4973469;28;20023;-51
2023/04/03 02:23:57;;;;;;;8.98;3.67;;;1.80;99.90;;;;;;4958612;28;20034;-50
2023/04/03 02:26:44;;;;;;;10.73;3.25;;;1.70;99.90;;;;;;4972964;28;20078;-51
2023/04/03 02:29:30;;;;;;;7.60;3.10;;;1.80;99.90;;;;;;4973269;28;20027;-55
2023/04/03 02:32:16;;;;;;;8.57;4.07;;;1.80;99.90;;;;;;4973186;28;20027;-51
2023/04/03 02:35:02;;;;;;;9.43;3.25;;;1.70;99.90;;;;;;4972136;28;20027;-48
2023/04/03 02:37:49;;;;;;;10.65;3.03;;;1.70;99.90;;;;;;4972910;28;20027;-48
2023/04/03 02:40:35;;;;;;;6.63;3.25;;;1.70;99.90;;;;;;4973130;28;20063;-49
2023/04/03 02:43:20;;;;;;;8.88;3.10;;;1.60;99.90;;;;;;4972987;28;20027;-51
2023/04/03 02:46:07;;;;;;;10.70;3.17;;;1.50;99.90;;;;;;4989102;28;20030;-48
2023/04/03 02:48:53;;;;;;;12.68;3.55;;;1.50;99.90;;;;;;4989572;28;20053;-48
2023/04/03 02:51:39;;;;;;;10.82;3.38;;;1.40;99.90;;;;;;4992061;28;20142;-51
2023/04/03 02:54:28;;;;;;;9.43;3.17;;;1.40;99.90;;;;;;4990819;28;20034;-49
2023/04/03 02:57:14;;;;;;;12.27;3.92;;;1.40;99.90;;;;;;4990506;28;20030;-49
2023/04/03 03:00:00;;;;;;;9.20;2.95;;;1.40;99.90;;;;;;4978010;28;20503;-48
2023/04/03 03:02:46;;;;;;;8.82;2.88;;;1.40;99.90;;;;;;4976255;28;20034;-49
2023/04/03 03:05:32;;;;;;;7.05;3.10;;;1.40;99.90;;;;;;4991820;28;20093;-48
2023/04/03 03:08:20;;;;;;;9.32;2.92;;;1.40;99.90;;;;;;4990793;28;20030;-52
2023/04/03 03:11:05;;;;;;;6.65;2.92;;;1.20;99.90;;;;;;4990653;28;20395;-48
2023/04/03 03:13:51;;;;;;;9.13;3.38;;;1.20;99.90;;;;;;4990665;28;20117;-48
2023/04/03 03:16:37;;;;;;;7.20;3.00;;;1.20;99.90;;;;;;4976806;28;20037;-48
2023/04/03 03:19:23;;;;;;;10.68;3.50;;;1.10;99.90;;;;;;4977145;28;20422;-48
2023/04/03 03:22:09;;;;;;;6.32;2.80;;;1.10;99.90;;;;;;4988329;28;20033;-48
2023/04/03 03:24:55;;;;;;;6.80;2.80;;;1.20;99.90;;;;;;4996988;28;20030;-49
2023/04/03 03:27:41;;;;;;;7.68;3.22;;;1.10;99.90;;;;;;5011366;28;20017;-48
2023/04/03 03:30:27;;;;;;;9.48;3.40;;;1.10;99.90;;;;;;5013002;28;20108;-47
2023/04/03 03:33:13;;;;;;;10.95;3.33;;;1.10;99.90;;;;;;5012407;28;20061;-54
2023/04/03 03:35:59;;;;;;;8.70;3.50;;;1.10;99.90;;;;;;4999406;28;20045;-51
2023/04/03 03:38:45;;;;;;;8.27;2.95;;;1.20;99.90;;;;;;5013600;28;20475;-50
2023/04/03 03:41:31;;;;;;;8.15;3.05;;;1.20;99.90;;;;;;5012816;28;20378;-48
2023/04/03 03:44:17;;;;;;;7.97;3.20;;;1.20;99.90;;;;;;5002984;28;20031;-51
2023/04/03 03:47:05;;;;;;;8.23;3.00;;;1.10;99.90;;;;;;4974354;28;20514;-49
2023/04/03 03:49:51;;;;;;;8.73;3.67;;;1.10;99.90;;;;;;4988588;28;20490;-50
2023/04/03 03:52:38;;;;;;;7.72;3.08;;;1.10;99.90;;;;;;4993986;28;20022;-48
2023/04/03 03:55:24;;;;;;;8.07;2.90;;;1.10;99.90;;;;;;4980444;28;20066;-48
2023/04/03 03:58:10;;;;;;;9.20;3.22;;;1.10;99.90;;;;;;5001401;28;20030;-48
2023/04/03 04:00:56;;;;;;;7.93;3.20;;;1.00;99.90;;;;;;5002188;28;20057;-53
2023/04/03 04:03:42;;;;;;;9.30;2.85;;;1.00;99.90;;;;;;5000868;28;20030;-49
2023/04/03 04:06:28;;;;;;;10.98;3.30;;;1.10;99.90;;;;;;4992424;28;20026;-50
2023/04/03 04:09:14;;;;;;;16.23;4.47;;;1.10;99.90;;;;;;4992645;28;20380;-50
2023/04/03 04:12:00;;;;;;;11.52;3.03;;;1.10;99.90;;;;;;4985505;28;20390;-49
2023/04/03 04:14:47;;;;;;;7.10;3.33;;;1.00;99.90;;;;;;4999028;28;20410;-47
2023/04/03 04:17:34;;;;;;;7.50;3.40;;;1.00;99.90;;;;;;5012141;28;20018;-49
2023/04/03 04:20:20;;;;;;;11.93;3.55;;;1.00;99.90;;;;;;5014037;28;20030;-50
2023/04/03 04:23:06;;;;;;;9.02;2.85;;;1.00;99.90;;;;;;5011845;28;20026;-51
2023/04/03 04:25:52;;;;;;;7.30;3.15;;;0.90;99.90;;;;;;5012331;28;20053;-47
2023/04/03 04:28:38;;;;;;;10.52;3.85;;;0.80;99.90;;;;;;5011818;28;20022;-50
2023/04/03 04:31:24;;;;;;;8.52;2.97;;;0.90;99.90;;;;;;5012331;28;20030;-48
2023/04/03 04:34:10;;;;;;;8.63;3.28;;;0.80;99.90;;;;;;5011993;28;20018;-47
2023/04/03 04:36:56;;;;;;;7.50;3.72;;;0.90;99.90;;;;;;5011530;28;20208;-49
2023/04/03 04:39:42;;;;;;;8.57;3.05;;;0.90;99.90;;;;;;5011781;28;20495;-50
2023/04/03 04:42:28;;;;;;;6.53;2.70;;;0.90;99.90;;;;;;5012289;28;20036;-49
2023/04/03 04:45:14;;;;;;;10.70;3.40;;;0.80;99.90;;;;;;5004699;28;20034;-52
2023/04/03 04:48:00;;;;;;;9.65;3.20;;;0.80;99.90;;;;;;5002104;28;20406;-49
2023/04/03 04:50:46;;;;;;;6.57;3.03;;;0.80;99.90;;;;;;5012503;28;20026;-52
2023/04/03 04:53:32;;;;;;;7.65;3.40;;;0.80;99.90;;;;;;5013496;28;20033;-50
2023/04/03 04:56:18;;;;;;;6.35;3.10;;;0.90;99.90;;;;;;4985857;28;20100;-51
2023/04/03 04:59:04;;;;;;;10.20;3.10;;;0.90;99.90;;;;;;5012487;28;20060;-49
2023/04/03 05:01:50;;;;;;;7.10;2.97;;;0.80;99.90;;;;;;5000711;28;20034;-50
2023/04/03 05:04:36;;;;;;;8.45;3.25;;;0.80;99.90;;;;;;4992242;28;20030;-51
2023/04/03 05:07:22;;;;;;;9.00;3.60;;;0.90;99.90;;;;;;4991899;28;20046;-50
2023/04/03 05:10:09;;;;;;;7.82;3.45;;;1.00;99.90;;;;;;4993023;28;20031;-52
2023/04/03 05:12:55;;;;;;;9.57;4.32;;;1.00;99.90;;;;;;4991548;28;20054;-53
2023/04/03 05:15:41;;;;;;;6.95;2.85;;;1.00;99.90;;;;;;4998749;28;20041;-45
2023/04/03 05:18:27;;;;;;;6.57;3.55;;;0.90;99.90;;;;;;4996728;28;20030;-47
2023/04/03 05:21:13;;;;;;;7.18;3.40;;;0.80;99.90;;;;;;4990673;28;20026;-48
2023/04/03 05:24:02;;;;;;;6.18;3.03;;;0.90;99.90;;;;;;4992750;28;20491;-46
2023/04/03 05:26:48;;;;;;;7.47;3.33;;;1.00;99.90;;;;;;4990651;28;20490;-48
2023/04/03 05:29:34;;;;;;;8.30;3.13;;;1.00;99.90;;;;;;4992779;28;20035;-46
2023/04/03 05:32:20;;;;;;;10.00;3.60;;;1.00;99.90;;;;;;4994637;28;20054;-48
2023/04/03 05:35:07;;;;;;;7.95;3.60;;;1.10;99.90;;;;;;4991308;28;20026;-49
2023/04/03 05:37:53;;;;;;;10.20;3.00;;;1.00;99.90;;;;;;4997083;28;20030;-47
2023/04/03 05:40:38;;;;;;;8.00;3.78;;;1.10;99.90;;;;;;4996774;28;20038;-49
2023/04/03 05:43:25;;;;;;;6.38;3.05;;;1.10;99.90;;;;;;4994307;28;20034;-56
2023/04/03 05:46:16;;;;;;;7.82;3.67;;;1.10;99.90;;;;;;4992518;28;20407;-53
2023/04/03 05:49:03;;;;;;;11.30;3.40;;;1.00;99.90;;;;;;4991630;28;20110;-49
2023/04/03 05:51:49;;;;;;;11.73;3.55;;;1.00;99.90;;;;;;4988339;28;20034;-52
2023/04/03 05:54:35;;;;;;;9.18;3.28;;;1.00;99.90;;;;;;4991481;28;20045;-53
2023/04/03 05:57:21;;;;;;;7.28;3.25;;;1.00;99.90;;;;;;4990865;28;20042;-59
2023/04/03 06:00:12;;;;;;;13.50;6.18;;;1.20;99.90;;;;;;4995718;28;20072;-49
2023/04/03 06:02:58;;;;;;;5.18;3.42;;;1.20;99.90;;;;;;4995964;28;20034;-49
2023/04/03 06:05:44;;;;;;;7.10;2.78;;;1.20;99.90;;;;;;4992972;28;20141;-49
2023/04/03 06:08:30;;;;;;;7.18;3.03;;;1.20;99.90;;;;;;4977723;28;20034;-49
2023/04/03 06:11:16;;;;;;;8.35;2.85;;;1.30;99.90;;;;;;4993049;28;20081;-47
2023/04/03 06:14:03;;;;;;;8.75;3.10;;;1.20;99.90;;;;;;4978488;28;20120;-47
2023/04/03 06:16:49;;;;;;;8.13;3.55;;;1.30;99.90;;;;;;4992191;28;20407;-49
2023/04/03 06:19:36;;;;;;;11.25;3.13;;;1.40;99.90;;;;;;4978944;28;20033;-48
2023/04/03 06:22:22;;;;;;;9.35;3.75;;;1.50;99.90;;;;;;4992655;28;20062;-52
2023/04/03 06:25:09;;;;;;;8.35;3.58;;;1.60;99.90;;;;;;4993354;28;20038;-54
2023/04/03 06:27:55;;;;;;;5.57;3.42;;;1.80;99.90;;;;;;4992063;28;20445;-52
2023/04/03 06:30:41;;;;;;;6.57;2.95;;;1.60;99.90;;;;;;4992871;28;20027;-51
2023/04/03 06:33:27;;;;;;;10.35;3.15;;;1.70;99.90;;;;;;4978587;28;20113;-51
2023/04/03 06:36:13;;;;;;;8.00;4.03;;;1.70;99.90;;;;;;4992000;28;20030;-49
2023/04/03 06:39:00;;;;;;;6.88;3.88;;;1.80;99.90;;;;;;4978192;28;20022;-51
2023/04/03 06:41:45;;;;;;;13.63;3.67;;;1.90;99.90;;;;;;4992305;28;20042;-48
2023/04/03 06:44:33;;;;;;;12.75;3.95;;;1.90;99.90;;;;;;4992764;28;20518;-49
2023/04/03 06:47:19;;;;;;;6.70;2.85;;;1.90;99.90;;;;;;4977927;28;20109;-50
2023/04/03 06:50:06;;;;;;;6.97;3.63;;;1.90;99.90;;;;;;4992690;28;20038;-48
2023/04/03 06:52:52;;;;;;;7.13;3.13;;;2.00;99.90;;;;;;4995536;28;20018;-47
2023/04/03 06:55:38;;;;;;;10.35;3.95;;;2.00;99.90;;;;;;4995038;28;20026;-49
2023/04/03 06:58:24;;;;;;;8.18;3.05;;;2.10;99.90;;;;;;4995339;28;20022;-48
2023/04/03 07:01:12;;;;;;;7.82;3.63;;;2.10;99.90;;;;;;5002463;28;20037;-51
2023/04/03 07:03:58;;;;;;;13.68;3.25;;;2.30;99.90;;;;;;4998861;28;20061;-52
2023/04/03 07:06:44;;;;;;;7.82;3.15;;;2.30;99.90;;;;;;5002061;28;20026;-52
2023/04/03 07:09:30;;;;;;;6.43;3.30;;;2.30;99.90;;;;;;5005599;28;20026;-50
2023/04/03 07:12:16;;;;;;;10.48;2.88;;;2.30;99.90;;;;;;5004460;28;20032;-52
2023/04/03 07:15:02;;;;;;;8.98;3.00;;;2.40;99.90;;;;;;5004039;28;20081;-56
2023/04/03 07:17:48;;;;;;;11.43;3.58;;;2.50;99.90;;;;;;5004044;28;20022;-54
2023/04/03 07:20:34;;;;;;;9.02;3.55;;;2.50;99.90;;;;;;5001403;28;20034;-49
2023/04/03 07:23:20;;;;;;;9.40;3.25;;;2.40;99.90;;;;;;5000959;28;20030;-52
2023/04/03 07:26:08;;;;;;;13.32;3.72;;;2.40;99.90;;;;;;5003076;28;20482;-48
2023/04/03 07:28:53;;;;;;;7.38;3.60;;;2.50;99.90;;;;;;5003610;28;20062;-51
2023/04/03 07:31:41;;;;;;;10.90;3.40;;;2.50;99.90;;;;;;5000222;28;20022;-54
2023/04/03 07:34:27;;;;;;;7.68;3.67;;;2.50;99.90;;;;;;4987511;28;20030;-50
2023/04/03 07:37:13;;;;;;;6.70;3.17;;;2.50;99.90;;;;;;5003365;28;20507;-54
2023/04/03 07:40:01;;;;;;;9.52;3.15;;;2.50;99.90;;;;;;5001458;28;20034;-55
2023/04/03 07:42:47;;;;;;;10.57;2.85;;;2.60;99.90;;;;;;5002450;28;20105;-53
2023/04/03 07:45:34;;;;;;;10.30;3.28;;;2.70;99.90;;;;;;4994861;28;20069;-48
2023/04/03 07:48:25;;;;;;;9.35;3.20;;;2.70;99.90;;;;;;4993192;28;20839;-49
2023/04/03 07:51:11;;;;;;;9.65;3.80;;;2.60;99.90;;;;;;4991810;28;20058;-48
2023/04/03 07:53:57;;;;;;;8.52;2.88;;;2.60;99.90;;;;;;4993586;28;20027;-51
2023/04/03 07:56:43;;;;;;;8.45;3.53;;;2.80;99.90;;;;;;4994871;28;20023;-52
2023/04/03 07:59:29;;;;;;;8.77;3.20;;;3.00;99.90;;;;;;4992868;28;20605;-51
2023/04/03 08:02:15;;;;;;;10.10;3.47;;;3.00;99.90;;;;;;4993979;28;20406;-48
2023/04/03 08:05:01;;;;;;;9.50;3.08;;;3.10;99.90;;;;;;4994118;28;20022;-54
2023/04/03 08:07:48;;;;;;;11.13;3.45;;;3.40;99.90;;;;;;5000684;28;20022;-51
2023/04/03 08:10:35;;;;;;;8.10;3.45;;;3.50;99.90;;;;;;4998387;28;20079;-48
2023/04/03 08:13:21;;;;;;;13.27;3.15;;;3.60;99.90;;;;;;4984424;28;20184;-53
2023/04/03 08:16:09;;;;;;;7.53;3.28;;;3.60;99.90;;;;;;4990871;28;20030;-59
2023/04/03 08:18:55;;;;;;;11.57;4.05;;;3.60;99.90;;;;;;4976502;28;20105;-49
2023/04/03 08:21:41;;;;;;;9.20;3.20;;;3.50;99.90;;;;;;4974845;28;20019;-51
2023/04/03 08:24:27;;;;;;;12.63;3.05;;;3.60;99.80;;;;;;4996953;28;20118;-55
2023/04/03 08:27:13;;;;;;;11.65;4.22;;;3.50;99.40;;;;;;4992728;28;20041;-52
2023/04/03 08:29:59;;;;;;;7.40;3.20;;;3.60;99.00;;;;;;4971287;28;20036;-54
2023/04/03 08:32:45;;;;;;;6.18;3.15;;;3.70;99.30;;;;;;4996833;28;20022;-55
2023/04/03 08:35:31;;;;;;;5.78;3.25;;;3.80;98.80;;;;;;4996398;28;20031;-48
2023/04/03 08:38:17;;;;;;;6.75;3.03;;;3.90;98.00;;;;;;4996109;28;20037;-55
2023/04/03 08:41:30;;;;;;;9.43;3.58;;;3.60;98.30;;;;;;4995726;28;20102;-52
2023/04/03 08:44:30;;;;;;;4.00;3.08;;;3.80;98.60;;;;;;4978196;28;20027;-50
2023/04/03 08:47:41;;;;;;;10.65;3.30;;;4.00;98.10;;;;;;4980253;28;20118;-55
2023/04/03 08:50:33;;;;;;;4.88;2.80;;;4.10;98.10;;;;;;4994864;28;20133;-48
2023/04/03 08:53:22;;;;;;;5.72;2.58;;;3.90;97.90;;;;;;4995757;28;20030;-50
2023/04/03 08:56:10;;;;;;;5.10;2.55;;;3.90;97.40;;;;;;4994530;28;20022;-50
2023/04/03 08:58:59;;;;;;;9.85;3.25;;;3.90;97.10;;;;;;4992094;28;20058;-52
2023/04/03 09:01:45;;;;;;;10.93;3.20;;;3.80;96.70;;;;;;4994087;28;20094;-48
2023/04/03 09:04:35;;;;;;;7.25;2.80;;;3.80;96.20;;;;;;4996376;28;20384;-50
2023/04/03 09:07:31;;;;;;;6.03;2.72;;;3.80;96.70;;;;;;4992544;28;20037;-50
2023/04/03 09:10:26;;;;;;;6.47;2.30;;;3.80;96.10;;;;;;4980992;28;20405;-50
2023/04/03 09:13:31;;;;;;;8.98;2.72;;;3.90;96.40;;;;;;5001536;28;20026;-58
2023/04/03 09:16:47;;;;;;;5.15;2.92;;;4.00;96.20;;;;;;4999571;28;20065;-57
2023/04/03 09:19:48;;;;;;;6.32;2.45;;;4.00;95.90;;;;;;4996139;28;20023;-56
2023/04/03 09:22:39;;;;;;;8.38;2.83;;;4.00;95.10;;;;;;4997988;28;20104;-55
2023/04/03 09:25:35;;;;;;;5.93;2.75;;;4.10;95.20;;;;;;4979985;28;20396;-56
2023/04/03 09:28:21;;;;;;;6.85;2.55;;;4.30;94.50;;;;;;4991910;28;20018;-53
2023/04/03 09:31:19;;;;;;;4.60;2.50;;;4.30;94.60;;;;;;4994013;28;20026;-49
2023/04/03 09:34:28;;;;;;;7.38;3.00;;;4.30;94.80;;;;;;4993579;28;20015;-53
2023/04/03 09:37:38;;;;;;;6.22;2.92;;;4.30;94.00;;;;;;5000257;28;20114;-51
2023/04/03 09:40:34;;;;;;;5.18;2.85;;;4.40;94.30;;;;;;4993366;28;20030;-51
2023/04/03 09:43:38;;;;;;;7.72;2.72;;;4.50;94.00;;;;;;4996544;28;20022;-54
2023/04/03 09:46:34;;;;;;;4.28;2.85;;;4.80;93.70;;;;;;4998874;28;20025;-52
2023/04/03 09:49:20;;;;;;;6.68;2.88;;;5.00;93.30;;;;;;5003479;28;20026;-49
2023/04/03 09:52:28;;;;;;;4.95;2.55;;;5.10;92.40;;;;;;5002464;28;20022;-47
2023/04/03 09:55:29;;;;;;;6.05;2.60;;;5.20;92.00;;;;;;4997468;28;20030;-53
2023/04/03 09:58:36;;;;;;;6.65;3.17;;;5.20;91.80;;;;;;4999923;28;20058;-48
2023/04/03 10:01:29;;;;;;;4.25;2.60;;;5.40;91.90;;;;;;4994077;28;20045;-53
2023/04/03 10:04:18;;;;;;;8.38;2.58;;;5.30;91.00;;;;;;4997758;28;20093;-53
2023/04/03 10:07:35;;;;;;;8.68;2.58;;;5.10;91.40;;;;;;5003795;28;20021;-53
2023/04/03 10:10:25;;;;;;;7.30;2.50;;;5.30;91.10;;;;;;5005771;28;20054;-50
2023/04/03 10:13:20;;;;;;;6.93;2.65;;;5.40;90.60;;;;;;4993764;28;20030;-49
2023/04/03 10:16:12;;;;;;;7.15;3.00;;;5.30;91.00;;;;;;4994461;28;20025;-52
2023/04/03 10:19:04;;;;;;;7.10;3.58;;;5.40;92.10;;;;;;4987229;28;20068;-54
2023/04/03 10:21:57;;;;;;;6.93;2.55;;;5.60;91.80;;;;;;5002765;28;20049;-53
2023/04/03 10:25:13;;;;;;;7.18;3.22;;;5.80;90.80;;;;;;4992426;28;20113;-52
2023/04/03 10:28:11;;;;;;;6.60;2.78;;;5.90;91.10;;;;;;4991473;28;20025;-54
2023/04/03 10:31:08;;;;;;;7.80;2.90;;;5.90;91.20;;;;;;4991983;28;20046;-48
2023/04/03 10:34:27;;;;;;;7.72;3.28;;;5.90;91.40;;;;;;4991558;28;20105;-51
2023/04/03 10:37:40;;;;;;;6.40;2.65;;;6.00;90.60;;;;;;4969917;28;20031;-52
2023/04/03 10:40:55;;;;;;;6.28;2.85;;;6.10;90.40;;;;;;4997191;28;20057;-47
2023/04/03 10:44:13;;;;;;;7.57;3.22;;;6.30;90.50;;;;;;4990990;28;20022;-52
2023/04/03 10:47:09;;;;;;;7.10;2.80;;;6.40;90.40;;;;;;4972210;28;20019;-49
2023/04/03 10:50:39;;;;;;;4.60;2.95;;;6.30;90.00;;;;;;4995476;28;20022;-50
2023/04/03 10:53:32;;;;;;;6.28;2.67;;;6.20;89.20;;;;;;4992394;28;20518;-48
2023/04/03 10:56:39;;;;;;;4.30;3.03;;;6.20;88.30;;;;;;4991922;28;20085;-49
2023/04/03 10:59:47;;;;;;;7.90;2.70;;;6.00;88.10;;;;;;4992085;28;20026;-49
2023/04/03 11:02:41;;;;;;;8.25;3.03;;;5.90;89.20;;;;;;4996189;28;20029;-53
2023/04/03 11:05:45;;;;;;;8.23;3.00;;;5.90;89.00;;;;;;4986971;28;20027;-52
2023/04/03 11:08:39;;;;;;;5.65;2.97;;;5.50;90.40;;;;;;4987806;28;20250;-54
2023/04/03 11:11:32;;;;;;;5.78;3.05;;;5.20;90.70;;;;;;4994271;28;20093;-52
2023/04/03 11:14:26;;;;;;;6.68;3.08;;;5.10;91.50;;;;;;4992404;28;20029;-52
2023/04/03 11:17:18;;;;;;;6.95;3.10;;;5.20;91.30;;;;;;4986869;28;20038;-51
2023/04/03 11:20:32;;;;;;;3.95;2.90;;;5.70;91.20;;;;;;4995897;28;20112;-54
2023/04/03 11:23:28;;;;;;;6.72;2.78;;;6.00;90.10;;;;;;4993474;28;20034;-51
2023/04/03 11:26:20;;;;;;;7.60;3.30;;;5.80;87.40;;;;;;4992340;28;20033;-51
2023/04/03 11:29:13;;;;;;;8.23;3.80;;;5.60;89.00;;;;;;4993086;28;20030;-50
2023/04/03 11:32:09;;;;;;;7.72;3.40;;;5.60;90.10;;;;;;4995456;28;20479;-55
2023/04/03 11:35:00;;;;;;;8.50;2.75;;;5.60;90.40;;;;;;4993466;28;20081;-49
2023/04/03 11:37:50;;;;;;;7.30;3.03;;;5.80;89.70;;;;;;4993263;28;20452;-48
2023/04/03 11:40:38;;;;;;;5.35;2.60;;;5.60;88.70;;;;;;4991213;28;20407;-49
2023/04/03 11:43:32;;;;;;;7.68;2.70;;;5.40;88.90;;;;;;4991820;28;20022;-49
2023/04/03 11:46:19;;;;;;;5.60;3.10;;;5.30;90.10;;;;;;4993082;28;20061;-49
2023/04/03 11:49:25;;;;;;;5.72;2.65;;;5.60;89.50;;;;;;4993145;28;20451;-53
2023/04/03 11:52:11;;;;;;;;;;;5.80;87.80;;;;;;4995645;28;20491;-48
2023/04/03 11:54:57;;;;;;;7.18;2.72;;;6.00;88.30;;;;;;4995076;28;19920;-51
2023/04/03 11:57:58;;;;;;;9.13;3.42;;;6.10;88.20;;;;;;4995036;28;20507;-49
2023/04/03 12:00:47;;;;;;;4.78;2.80;;;6.00;86.10;;;;;;4996062;28;20053;-55
2023/04/03 12:03:36;;;;;;;5.78;2.60;;;5.90;87.80;;;;;;4994177;28;20025;-52
2023/04/03 12:06:35;;;;;;;7.03;2.83;;;5.90;89.30;;;;;;4985177;28;20018;-50
2023/04/03 12:09:39;;;;;;;6.25;3.10;;;5.80;86.70;;;;;;4992155;28;20162;-51
2023/04/03 12:12:30;;;;;;;9.00;2.90;;;5.70;86.60;;;;;;4995346;28;20031;-49
2023/04/03 12:15:24;;;;;;;8.18;2.88;;;6.00;86.50;;;;;;4993786;28;20669;-54
2023/04/03 12:18:40;;;;;;;5.28;2.97;;;6.30;87.20;;;;;;4996334;28;20067;-55
2023/04/03 12:21:29;;;;;;;8.68;3.47;;;6.40;86.70;;;;;;4998302;28;20454;-56
2023/04/03 12:24:15;;;;;;;7.75;3.25;;;6.30;88.40;;;;;;4997871;28;20171;-55
2023/04/03 12:27:32;;;;;;;7.18;3.45;;;6.20;88.40;;;;;;4998755;28;20033;-52
2023/04/03 12:30:27;;;;;;;4.82;3.10;;;6.20;86.30;;;;;;4993326;28;20023;-52
2023/04/03 12:33:57;;;;;;;5.47;3.13;;;6.30;88.60;;;;;;4995394;28;20031;-54
2023/04/03 12:37:36;;;;;;;7.00;3.03;;;6.60;87.00;;;;;;4995573;28;20042;-55
2023/04/03 12:40:46;;;;;;;7.85;3.15;;;6.60;84.40;;;;;;4993646;28;20491;-55
2023/04/03 12:43:51;;;;;;;8.75;3.35;;;6.40;85.70;;;;;;4992711;28;20053;-56
2023/04/03 12:46:50;;;;;;;4.50;3.25;;;6.50;86.30;;;;;;4999008;28;20031;-57
2023/04/03 12:49:42;;;;;;;7.50;3.22;;;7.00;86.00;;;;;;4990824;28;20026;-57
2023/04/03 12:52:43;;;;;;;8.75;3.10;;;7.40;83.80;;;;;;4994237;28;20030;-59
2023/04/03 12:55:30;;;;;;;7.07;2.80;;;7.10;81.70;;;;;;5002510;28;20108;-56
2023/04/03 12:58:26;;;;;;;7.75;2.65;;;6.60;82.10;;;;;;4996249;28;20030;-55
2023/04/03 13:01:18;;;;;;;7.13;3.42;;;6.50;83.80;;;;;;4997973;28;20030;-57
2023/04/03 13:04:04;;;;;;;8.15;2.30;;;6.60;84.00;;;;;;4995860;28;20022;-57
2023/04/03 13:06:50;;;;;;;4.13;2.70;;;6.50;84.20;;;;;;4994239;28;20035;-55
2023/04/03 13:09:36;;;;;;;6.18;3.13;;;6.60;82.40;;;;;;4996689;28;20030;-56
2023/04/03 13:12:22;;;;;;;4.90;2.63;;;6.50;83.30;;;;;;4994277;28;20050;-57
2023/04/03 13:15:19;;;;;;;6.05;2.75;;;6.80;83.10;;;;;;4994084;28;20066;-58
2023/04/03 13:18:20;;;;;;;7.40;3.10;;;7.30;83.00;;;;;;4991829;28;20130;-57
2023/04/03 13:21:24;;;;;;;6.80;3.10;;;7.50;82.10;;;;;;4994447;28;20026;-55
2023/04/03 13:24:11;;;;;;;6.78;3.13;;;7.30;82.40;;;;;;4993629;28;20038;-53
2023/04/03 13:26:58;;;;;;;8.57;2.70;;;7.20;82.50;;;;;;4994186;28;20034;-51
2023/04/03 13:29:53;;;;;;;7.13;2.70;;;6.80;83.20;;;;;;4993459;28;20045;-55
2023/04/03 13:32:40;;;;;;;4.53;3.40;;;6.70;84.20;;;;;;4985081;28;20475;-55
2023/04/03 13:35:29;;;;;;;7.75;2.92;;;6.50;84.80;;;;;;4994070;28;20573;-56
2023/04/03 13:38:17;;;;;;;7.90;2.92;;;6.20;85.50;;;;;;4995076;28;20146;-55
2023/04/03 13:41:25;;;;;;;4.85;2.70;;;6.20;86.80;;;;;;4992883;28;20019;-56
2023/04/03 13:44:23;;;;;;;3.38;2.60;;;6.10;85.20;;;;;;4994423;28;20030;-57
2023/04/03 13:47:25;;;;;;;8.15;3.65;;;6.10;86.20;;;;;;4994158;28;20536;-56
2023/04/03 13:50:28;;;;;;;7.30;3.05;;;6.10;85.80;;;;;;4994092;28;20037;-54
2023/04/03 13:53:14;;;;;;;4.15;2.85;;;6.10;84.70;;;;;;4994606;28;20031;-55
2023/04/03 13:56:03;;;;;;;3.90;2.50;;;6.20;84.70;;;;;;4996138;28;20026;-54
2023/04/03 13:58:59;;;;;;;7.70;3.35;;;6.20;83.80;;;;;;4993593;28;20026;-53
2023/04/03 14:01:54;;;;;;;5.50;3.05;;;6.30;84.70;;;;;;4994553;28;20180;-54
2023/04/03 14:04:43;;;;;;;8.60;3.30;;;6.40;84.00;;;;;;4988873;28;20064;-54
2023/04/03 14:07:30;;;;;;;4.90;2.88;;;6.80;84.80;;;;;;4993233;28;20101;-50
2023/04/03 14:10:17;;;;;;;8.95;2.90;;;7.20;83.50;;;;;;4994968;28;20153;-55
2023/04/03 14:13:03;;;;;;;7.90;3.05;;;6.90;82.30;;;;;;4994895;28;20046;-53
2023/04/03 14:15:50;;;;;;;5.00;2.60;;;6.50;83.60;;;;;;4994188;28;20046;-56
2023/04/03 14:18:36;;;;;;;6.68;3.38;;;6.40;83.50;;;;;;4991404;28;20022;-55
2023/04/03 14:21:23;;;;;;;6.05;3.03;;;6.20;84.10;;;;;;4992201;28;20074;-55
2023/04/03 14:24:11;;;;;;;4.07;2.53;;;6.10;83.60;;;;;;4976713;28;20061;-53
2023/04/03 14:26:57;;;;;;;5.13;3.20;;;6.00;84.10;;;;;;4991271;28;20018;-51
2023/04/03 14:29:43;;;;;;;5.47;2.80;;;6.00;84.10;;;;;;4993286;28;20061;-50
2023/04/03 14:32:29;;;;;;;4.88;2.67;;;6.00;84.80;;;;;;5011233;28;20084;-50
2023/04/03 14:35:16;;;;;;;9.23;3.08;;;6.10;84.20;;;;;;4988931;28;20030;-58
2023/04/03 14:38:05;;;;;;;6.10;2.97;;;6.00;83.90;;;;;;4993477;28;20105;-55
2023/04/03 14:40:51;;;;;;;5.70;3.00;;;6.20;88.20;;;;;;4998530;28;20388;-51
2023/04/03 14:43:38;;;;;;;5.95;2.63;;;6.70;90.30;;;;;;4993417;28;20034;-51
2023/04/03 14:46:37;;;;;;;6.57;3.80;;;6.60;83.20;;;;;;4991091;28;20030;-55
2023/04/03 14:49:28;;;;;;;4.72;3.22;;;6.60;83.50;;;;;;4990508;28;20026;-53
2023/04/03 14:52:28;;;;;;;6.38;3.00;;;6.50;83.90;;;;;;4975836;28;20041;-50
2023/04/03 14:55:19;;;;;;;5.93;3.17;;;6.70;83.10;;;;;;4991285;28;20026;-54
2023/04/03 14:58:05;;;;;;;10.45;3.75;;;6.90;81.50;;;;;;4976390;28;20108;-53